sensor_id;sensor_type;location;lat;lon;timestamp;P1;durP1;ratioP1;P2;durP2;ratioP2
40707;SDS011;26392;42.696;23.350;2022-11-10T00:00:28;120.00;;;48.78;;
40707;SDS011;26392;42.696;23.350;2022-11-10T00:02:54;122.03;;;52.00;;
40707;SDS011;26392;42.696;23.350;2022-11-10T00:05:19;119.60;;;49.25;;
40707;SDS011;26392;42.696;23.350;2022-11-10T00:07:45;118.15;;;48.38;;
40707;SDS011;26392;42.696;23.350;2022-11-10T00:10:10;121.75;;;49.58;;
40707;SDS011;26392;42.696;23.350;2022-11-10T00:12:36;115.97;;;49.42;;
40707;SDS011;26392;42.696;23.350;2022-11-10T00:15:02;131.13;;;49.67;;
40707;SDS011;26392;42.696;23.350;2022-11-10T00:17:46;130.98;;;50.22;;
40707;SDS011;26392;42.696;23.350;2022-11-10T00:20:11;111.88;;;47.10;;
40707;SDS011;26392;42.696;23.350;2022-11-10T00:22:37;121.28;;;48.50;;
40707;SDS011;26392;42.696;23.350;2022-11-10T00:25:04;111.97;;;47.40;;
40707;SDS011;26392;42.696;23.350;2022-11-10T00:27:32;115.95;;;47.63;;
40707;SDS011;26392;42.696;23.350;2022-11-10T00:29:58;97.38;;;44.50;;
40707;SDS011;26392;42.696;23.350;2022-11-10T00:32:24;115.03;;;46.83;;
40707;SDS011;26392;42.696;23.350;2022-11-10T00:34:49;105.25;;;44.35;;
40707;SDS011;26392;42.696;23.350;2022-11-10T00:37:15;101.97;;;43.30;;
40707;SDS011;26392;42.696;23.350;2022-11-10T00:39:41;93.53;;;41.72;;
40707;SDS011;26392;42.696;23.350;2022-11-10T00:42:24;114.55;;;43.42;;
40707;SDS011;26392;42.696;23.350;2022-11-10T00:44:50;105.53;;;45.03;;
40707;SDS011;26392;42.696;23.350;2022-11-10T00:47:15;108.82;;;44.20;;
40707;SDS011;26392;42.696;23.350;2022-11-10T00:49:41;102.63;;;41.92;;
40707;SDS011;26392;42.696;23.350;2022-11-10T00:52:06;100.50;;;41.63;;
40707;SDS011;26392;42.696;23.350;2022-11-10T00:54:31;107.00;;;42.70;;
40707;SDS011;26392;42.696;23.350;2022-11-10T00:56:57;106.57;;;44.05;;
40707;SDS011;26392;42.696;23.350;2022-11-10T00:59:22;101.43;;;41.65;;
40707;SDS011;26392;42.696;23.350;2022-11-10T01:01:48;94.15;;;39.63;;
40707;SDS011;26392;42.696;23.350;2022-11-10T01:04:13;98.80;;;41.70;;
40707;SDS011;26392;42.696;23.350;2022-11-10T01:06:39;101.07;;;42.13;;
40707;SDS011;26392;42.696;23.350;2022-11-10T01:09:04;94.63;;;40.78;;
40707;SDS011;26392;42.696;23.350;2022-11-10T01:11:29;96.30;;;41.05;;
40707;SDS011;26392;42.696;23.350;2022-11-10T01:13:55;102.32;;;42.20;;
40707;SDS011;26392;42.696;23.350;2022-11-10T01:16:22;104.18;;;42.65;;
40707;SDS011;26392;42.696;23.350;2022-11-10T01:18:50;97.57;;;42.80;;
40707;SDS011;26392;42.696;23.350;2022-11-10T01:21:20;105.03;;;42.72;;
40707;SDS011;26392;42.696;23.350;2022-11-10T01:23:46;99.03;;;41.60;;
40707;SDS011;26392;42.696;23.350;2022-11-10T01:26:12;99.20;;;41.65;;
40707;SDS011;26392;42.696;23.350;2022-11-10T01:28:38;106.07;;;42.47;;
40707;SDS011;26392;42.696;23.350;2022-11-10T01:31:05;102.55;;;40.83;;
40707;SDS011;26392;42.696;23.350;2022-11-10T01:33:35;109.35;;;43.08;;
40707;SDS011;26392;42.696;23.350;2022-11-10T01:36:01;95.47;;;42.75;;
40707;SDS011;26392;42.696;23.350;2022-11-10T01:38:31;108.97;;;44.53;;
40707;SDS011;26392;42.696;23.350;2022-11-10T01:40:59;99.70;;;42.38;;
40707;SDS011;26392;42.696;23.350;2022-11-10T01:43:25;95.43;;;42.28;;
40707;SDS011;26392;42.696;23.350;2022-11-10T01:45:52;100.10;;;42.47;;
40707;SDS011;26392;42.696;23.350;2022-11-10T01:48:36;95.35;;;41.85;;
40707;SDS011;26392;42.696;23.350;2022-11-10T01:51:15;97.50;;;42.58;;
40707;SDS011;26392;42.696;23.350;2022-11-10T01:53:45;113.90;;;44.88;;
40707;SDS011;26392;42.696;23.350;2022-11-10T01:56:14;108.03;;;43.67;;
40707;SDS011;26392;42.696;23.350;2022-11-10T01:58:42;104.63;;;44.03;;
40707;SDS011;26392;42.696;23.350;2022-11-10T02:01:14;104.97;;;42.05;;
40707;SDS011;26392;42.696;23.350;2022-11-10T02:03:42;102.82;;;41.88;;
40707;SDS011;26392;42.696;23.350;2022-11-10T02:06:12;94.55;;;41.22;;
40707;SDS011;26392;42.696;23.350;2022-11-10T02:08:39;97.65;;;43.30;;
40707;SDS011;26392;42.696;23.350;2022-11-10T02:11:06;102.85;;;42.25;;
40707;SDS011;26392;42.696;23.350;2022-11-10T02:13:31;105.15;;;43.10;;
40707;SDS011;26392;42.696;23.350;2022-11-10T02:15:57;100.22;;;42.20;;
40707;SDS011;26392;42.696;23.350;2022-11-10T02:18:22;98.18;;;42.97;;
40707;SDS011;26392;42.696;23.350;2022-11-10T02:20:48;101.47;;;42.28;;
40707;SDS011;26392;42.696;23.350;2022-11-10T02:25:54;100.53;;;40.63;;
40707;SDS011;26392;42.696;23.350;2022-11-10T02:28:20;100.75;;;43.20;;
40707;SDS011;26392;42.696;23.350;2022-11-10T02:30:46;93.97;;;42.47;;
40707;SDS011;26392;42.696;23.350;2022-11-10T02:33:11;106.18;;;41.83;;
40707;SDS011;26392;42.696;23.350;2022-11-10T02:35:37;102.63;;;43.15;;
40707;SDS011;26392;42.696;23.350;2022-11-10T02:38:02;102.50;;;42.50;;
40707;SDS011;26392;42.696;23.350;2022-11-10T02:40:28;98.25;;;42.78;;
40707;SDS011;26392;42.696;23.350;2022-11-10T02:42:53;103.50;;;41.30;;
40707;SDS011;26392;42.696;23.350;2022-11-10T02:45:18;97.18;;;41.13;;
40707;SDS011;26392;42.696;23.350;2022-11-10T02:47:44;100.55;;;42.00;;
40707;SDS011;26392;42.696;23.350;2022-11-10T02:50:09;100.68;;;41.97;;
40707;SDS011;26392;42.696;23.350;2022-11-10T02:52:34;109.50;;;40.30;;
40707;SDS011;26392;42.696;23.350;2022-11-10T02:55:00;94.22;;;39.08;;
40707;SDS011;26392;42.696;23.350;2022-11-10T02:57:25;94.65;;;40.88;;
40707;SDS011;26392;42.696;23.350;2022-11-10T02:59:51;112.43;;;44.38;;
40707;SDS011;26392;42.696;23.350;2022-11-10T03:02:16;102.03;;;41.38;;
40707;SDS011;26392;42.696;23.350;2022-11-10T03:04:42;98.20;;;42.55;;
40707;SDS011;26392;42.696;23.350;2022-11-10T03:07:07;103.95;;;42.08;;
40707;SDS011;26392;42.696;23.350;2022-11-10T03:09:33;100.85;;;42.20;;
40707;SDS011;26392;42.696;23.350;2022-11-10T03:11:58;106.05;;;42.33;;
40707;SDS011;26392;42.696;23.350;2022-11-10T03:14:23;101.03;;;41.40;;
40707;SDS011;26392;42.696;23.350;2022-11-10T03:16:49;97.00;;;41.78;;
40707;SDS011;26392;42.696;23.350;2022-11-10T03:19:14;99.00;;;40.97;;
40707;SDS011;26392;42.696;23.350;2022-11-10T03:21:39;93.95;;;41.38;;
40707;SDS011;26392;42.696;23.350;2022-11-10T03:24:05;94.70;;;41.35;;
40707;SDS011;26392;42.696;23.350;2022-11-10T03:26:30;99.95;;;41.17;;
40707;SDS011;26392;42.696;23.350;2022-11-10T03:28:56;102.35;;;41.38;;
40707;SDS011;26392;42.696;23.350;2022-11-10T03:31:21;89.57;;;39.05;;
40707;SDS011;26392;42.696;23.350;2022-11-10T03:33:46;100.72;;;42.00;;
40707;SDS011;26392;42.696;23.350;2022-11-10T03:36:12;92.65;;;40.47;;
40707;SDS011;26392;42.696;23.350;2022-11-10T03:38:37;98.05;;;39.72;;
40707;SDS011;26392;42.696;23.350;2022-11-10T03:41:03;99.45;;;41.92;;
40707;SDS011;26392;42.696;23.350;2022-11-10T03:43:28;105.95;;;43.47;;
40707;SDS011;26392;42.696;23.350;2022-11-10T03:45:53;96.13;;;41.38;;
40707;SDS011;26392;42.696;23.350;2022-11-10T03:48:19;92.97;;;39.45;;
40707;SDS011;26392;42.696;23.350;2022-11-10T03:50:44;89.63;;;36.97;;
40707;SDS011;26392;42.696;23.350;2022-11-10T03:53:10;87.20;;;39.92;;
40707;SDS011;26392;42.696;23.350;2022-11-10T03:55:35;92.40;;;40.00;;
40707;SDS011;26392;42.696;23.350;2022-11-10T03:58:01;93.03;;;40.22;;
40707;SDS011;26392;42.696;23.350;2022-11-10T04:00:27;94.70;;;39.67;;
40707;SDS011;26392;42.696;23.350;2022-11-10T04:02:53;92.60;;;39.33;;
40707;SDS011;26392;42.696;23.350;2022-11-10T04:05:19;97.47;;;39.70;;
40707;SDS011;26392;42.696;23.350;2022-11-10T04:08:04;109.60;;;41.47;;
40707;SDS011;26392;42.696;23.350;2022-11-10T04:10:57;98.80;;;40.83;;
40707;SDS011;26392;42.696;23.350;2022-11-10T04:13:22;96.50;;;42.28;;
40707;SDS011;26392;42.696;23.350;2022-11-10T04:16:06;100.88;;;42.05;;
40707;SDS011;26392;42.696;23.350;2022-11-10T04:18:31;96.82;;;42.17;;
40707;SDS011;26392;42.696;23.350;2022-11-10T04:20:58;99.68;;;42.67;;
40707;SDS011;26392;42.696;23.350;2022-11-10T04:23:26;99.82;;;42.28;;
40707;SDS011;26392;42.696;23.350;2022-11-10T04:26:07;110.28;;;44.70;;
40707;SDS011;26392;42.696;23.350;2022-11-10T04:28:53;97.55;;;41.30;;
40707;SDS011;26392;42.696;23.350;2022-11-10T04:31:21;99.05;;;42.35;;
40707;SDS011;26392;42.696;23.350;2022-11-10T04:33:48;97.90;;;41.15;;
40707;SDS011;26392;42.696;23.350;2022-11-10T04:36:15;100.22;;;42.58;;
40707;SDS011;26392;42.696;23.350;2022-11-10T04:38:43;99.60;;;40.78;;
40707;SDS011;26392;42.696;23.350;2022-11-10T04:41:09;111.53;;;43.55;;
40707;SDS011;26392;42.696;23.350;2022-11-10T04:43:34;97.03;;;39.70;;
40707;SDS011;26392;42.696;23.350;2022-11-10T04:46:00;99.90;;;40.75;;
40707;SDS011;26392;42.696;23.350;2022-11-10T04:48:26;108.22;;;39.10;;
40707;SDS011;26392;42.696;23.350;2022-11-10T04:50:52;92.10;;;38.60;;
40707;SDS011;26392;42.696;23.350;2022-11-10T04:53:18;91.45;;;40.85;;
40707;SDS011;26392;42.696;23.350;2022-11-10T04:55:44;94.85;;;40.80;;
40707;SDS011;26392;42.696;23.350;2022-11-10T04:58:10;94.72;;;41.42;;
40707;SDS011;26392;42.696;23.350;2022-11-10T05:00:37;92.72;;;39.38;;
40707;SDS011;26392;42.696;23.350;2022-11-10T05:03:03;102.10;;;39.63;;
40707;SDS011;26392;42.696;23.350;2022-11-10T05:05:30;98.53;;;39.70;;
40707;SDS011;26392;42.696;23.350;2022-11-10T05:07:56;86.38;;;37.90;;
40707;SDS011;26392;42.696;23.350;2022-11-10T05:10:22;89.32;;;37.53;;
40707;SDS011;26392;42.696;23.350;2022-11-10T05:12:47;92.80;;;39.83;;
40707;SDS011;26392;42.696;23.350;2022-11-10T05:15:13;84.78;;;38.00;;
40707;SDS011;26392;42.696;23.350;2022-11-10T05:17:38;78.47;;;35.60;;
40707;SDS011;26392;42.696;23.350;2022-11-10T05:20:04;85.72;;;37.50;;
40707;SDS011;26392;42.696;23.350;2022-11-10T05:22:30;92.28;;;36.40;;
40707;SDS011;26392;42.696;23.350;2022-11-10T05:24:56;81.93;;;34.97;;
40707;SDS011;26392;42.696;23.350;2022-11-10T05:27:21;79.82;;;35.72;;
40707;SDS011;26392;42.696;23.350;2022-11-10T05:29:47;86.05;;;37.80;;
40707;SDS011;26392;42.696;23.350;2022-11-10T05:32:12;90.03;;;36.75;;
40707;SDS011;26392;42.696;23.350;2022-11-10T05:34:38;88.88;;;38.13;;
40707;SDS011;26392;42.696;23.350;2022-11-10T05:37:03;89.53;;;40.47;;
40707;SDS011;26392;42.696;23.350;2022-11-10T05:39:28;94.35;;;40.40;;
40707;SDS011;26392;42.696;23.350;2022-11-10T05:41:54;98.85;;;44.22;;
40707;SDS011;26392;42.696;23.350;2022-11-10T05:44:19;98.63;;;44.78;;
40707;SDS011;26392;42.696;23.350;2022-11-10T05:46:45;122.38;;;50.47;;
40707;SDS011;26392;42.696;23.350;2022-11-10T05:49:10;114.68;;;50.42;;
40707;SDS011;26392;42.696;23.350;2022-11-10T05:51:35;133.48;;;54.45;;
40707;SDS011;26392;42.696;23.350;2022-11-10T05:54:01;133.65;;;57.75;;
40707;SDS011;26392;42.696;23.350;2022-11-10T05:56:26;133.98;;;56.35;;
40707;SDS011;26392;42.696;23.350;2022-11-10T05:58:52;138.90;;;57.42;;
40707;SDS011;26392;42.696;23.350;2022-11-10T06:01:17;134.75;;;55.65;;
40707;SDS011;26392;42.696;23.350;2022-11-10T06:03:42;127.10;;;56.35;;
40707;SDS011;26392;42.696;23.350;2022-11-10T06:06:08;132.30;;;59.10;;
40707;SDS011;26392;42.696;23.350;2022-11-10T06:08:33;175.20;;;84.15;;
40707;SDS011;26392;42.696;23.350;2022-11-10T06:10:59;181.52;;;78.75;;
40707;SDS011;26392;42.696;23.350;2022-11-10T06:13:24;163.02;;;73.28;;
40707;SDS011;26392;42.696;23.350;2022-11-10T06:15:50;143.32;;;68.22;;
40707;SDS011;26392;42.696;23.350;2022-11-10T06:18:15;132.52;;;59.00;;
40707;SDS011;26392;42.696;23.350;2022-11-10T06:20:41;136.20;;;61.00;;
40707;SDS011;26392;42.696;23.350;2022-11-10T06:23:08;139.27;;;62.17;;
40707;SDS011;26392;42.696;23.350;2022-11-10T06:25:35;143.52;;;62.67;;
40707;SDS011;26392;42.696;23.350;2022-11-10T06:28:02;130.43;;;58.67;;
40707;SDS011;26392;42.696;23.350;2022-11-10T06:30:29;135.18;;;58.55;;
40707;SDS011;26392;42.696;23.350;2022-11-10T06:32:56;111.57;;;51.97;;
40707;SDS011;26392;42.696;23.350;2022-11-10T06:35:22;107.85;;;49.10;;
40707;SDS011;26392;42.696;23.350;2022-11-10T06:38:05;112.00;;;47.92;;
40707;SDS011;26392;42.696;23.350;2022-11-10T06:40:32;103.88;;;48.05;;
40707;SDS011;26392;42.696;23.350;2022-11-10T06:42:57;104.57;;;47.75;;
40707;SDS011;26392;42.696;23.350;2022-11-10T06:45:24;98.63;;;43.65;;
40707;SDS011;26392;42.696;23.350;2022-11-10T06:48:05;97.13;;;42.20;;
40707;SDS011;26392;42.696;23.350;2022-11-10T06:50:33;96.72;;;41.92;;
40707;SDS011;26392;42.696;23.350;2022-11-10T06:52:59;99.72;;;41.58;;
40707;SDS011;26392;42.696;23.350;2022-11-10T06:55:24;95.07;;;40.25;;
40707;SDS011;26392;42.696;23.350;2022-11-10T06:57:50;95.28;;;40.28;;
40707;SDS011;26392;42.696;23.350;2022-11-10T07:00:16;89.05;;;38.75;;
40707;SDS011;26392;42.696;23.350;2022-11-10T07:02:41;87.90;;;38.50;;
40707;SDS011;26392;42.696;23.350;2022-11-10T07:05:07;88.45;;;38.80;;
40707;SDS011;26392;42.696;23.350;2022-11-10T07:07:33;90.57;;;39.15;;
40707;SDS011;26392;42.696;23.350;2022-11-10T07:09:58;92.28;;;40.83;;
40707;SDS011;26392;42.696;23.350;2022-11-10T07:12:23;96.45;;;39.50;;
40707;SDS011;26392;42.696;23.350;2022-11-10T07:14:49;92.78;;;38.78;;
40707;SDS011;26392;42.696;23.350;2022-11-10T07:17:15;89.53;;;38.33;;
40707;SDS011;26392;42.696;23.350;2022-11-10T07:19:40;92.53;;;37.15;;
40707;SDS011;26392;42.696;23.350;2022-11-10T07:22:06;96.82;;;39.65;;
40707;SDS011;26392;42.696;23.350;2022-11-10T07:24:31;93.50;;;39.72;;
40707;SDS011;26392;42.696;23.350;2022-11-10T07:26:57;89.32;;;37.58;;
40707;SDS011;26392;42.696;23.350;2022-11-10T07:29:23;95.72;;;37.00;;
40707;SDS011;26392;42.696;23.350;2022-11-10T07:31:49;109.65;;;38.92;;
40707;SDS011;26392;42.696;23.350;2022-11-10T07:34:15;95.90;;;35.33;;
40707;SDS011;26392;42.696;23.350;2022-11-10T07:36:40;80.68;;;35.90;;
40707;SDS011;26392;42.696;23.350;2022-11-10T07:39:06;92.35;;;37.92;;
40707;SDS011;26392;42.696;23.350;2022-11-10T07:41:31;99.55;;;37.35;;
40707;SDS011;26392;42.696;23.350;2022-11-10T07:43:57;114.57;;;40.40;;
40707;SDS011;26392;42.696;23.350;2022-11-10T07:46:22;100.38;;;38.40;;
40707;SDS011;26392;42.696;23.350;2022-11-10T07:48:48;101.38;;;39.47;;
40707;SDS011;26392;42.696;23.350;2022-11-10T07:51:14;100.90;;;39.97;;
40707;SDS011;26392;42.696;23.350;2022-11-10T07:53:39;106.07;;;39.33;;
40707;SDS011;26392;42.696;23.350;2022-11-10T07:56:05;115.43;;;41.17;;
40707;SDS011;26392;42.696;23.350;2022-11-10T07:58:31;116.00;;;41.88;;
40707;SDS011;26392;42.696;23.350;2022-11-10T08:00:58;118.30;;;41.97;;
40707;SDS011;26392;42.696;23.350;2022-11-10T08:03:23;120.80;;;42.33;;
40707;SDS011;26392;42.696;23.350;2022-11-10T08:05:49;124.97;;;43.08;;
40707;SDS011;26392;42.696;23.350;2022-11-10T08:08:14;106.10;;;40.35;;
40707;SDS011;26392;42.696;23.350;2022-11-10T08:10:40;121.40;;;45.72;;
40707;SDS011;26392;42.696;23.350;2022-11-10T08:13:07;119.22;;;44.70;;
40707;SDS011;26392;42.696;23.350;2022-11-10T08:15:34;120.15;;;45.30;;
40707;SDS011;26392;42.696;23.350;2022-11-10T08:18:00;122.22;;;44.45;;
40707;SDS011;26392;42.696;23.350;2022-11-10T08:20:28;128.68;;;46.85;;
40707;SDS011;26392;42.696;23.350;2022-11-10T08:23:01;123.60;;;44.92;;
40707;SDS011;26392;42.696;23.350;2022-11-10T08:25:29;119.50;;;44.42;;
40707;SDS011;26392;42.696;23.350;2022-11-10T08:28:03;125.85;;;46.47;;
40707;SDS011;26392;42.696;23.350;2022-11-10T08:30:34;118.32;;;47.22;;
40707;SDS011;26392;42.696;23.350;2022-11-10T08:33:01;118.97;;;46.38;;
40707;SDS011;26392;42.696;23.350;2022-11-10T08:35:29;129.90;;;48.92;;
40707;SDS011;26392;42.696;23.350;2022-11-10T08:37:55;126.85;;;48.55;;
40707;SDS011;26392;42.696;23.350;2022-11-10T08:40:21;117.57;;;45.67;;
40707;SDS011;26392;42.696;23.350;2022-11-10T08:42:56;116.07;;;48.13;;
40707;SDS011;26392;42.696;23.350;2022-11-10T08:47:58;113.78;;;47.67;;
40707;SDS011;26392;42.696;23.350;2022-11-10T08:50:25;122.22;;;52.35;;
40707;SDS011;26392;42.696;23.350;2022-11-10T08:52:51;109.15;;;46.45;;
40707;SDS011;26392;42.696;23.350;2022-11-10T08:55:16;112.32;;;50.90;;
40707;SDS011;26392;42.696;23.350;2022-11-10T08:57:44;114.40;;;49.47;;
40707;SDS011;26392;42.696;23.350;2022-11-10T09:00:10;105.47;;;45.55;;
40707;SDS011;26392;42.696;23.350;2022-11-10T09:02:36;100.65;;;44.70;;
40707;SDS011;26392;42.696;23.350;2022-11-10T09:05:02;110.55;;;45.40;;
40707;SDS011;26392;42.696;23.350;2022-11-10T09:07:27;98.78;;;42.65;;
40707;SDS011;26392;42.696;23.350;2022-11-10T09:09:55;114.78;;;43.85;;
40707;SDS011;26392;42.696;23.350;2022-11-10T09:12:20;96.80;;;42.17;;
40707;SDS011;26392;42.696;23.350;2022-11-10T09:14:46;94.38;;;40.05;;
40707;SDS011;26392;42.696;23.350;2022-11-10T09:17:12;100.93;;;41.65;;
40707;SDS011;26392;42.696;23.350;2022-11-10T09:19:37;91.45;;;41.53;;
40707;SDS011;26392;42.696;23.350;2022-11-10T09:22:03;94.35;;;42.65;;
40707;SDS011;26392;42.696;23.350;2022-11-10T09:24:29;88.80;;;41.08;;
40707;SDS011;26392;42.696;23.350;2022-11-10T09:26:54;98.15;;;42.58;;
40707;SDS011;26392;42.696;23.350;2022-11-10T09:29:20;99.95;;;43.20;;
40707;SDS011;26392;42.696;23.350;2022-11-10T09:31:46;94.70;;;41.53;;
40707;SDS011;26392;42.696;23.350;2022-11-10T09:34:12;97.97;;;43.33;;
40707;SDS011;26392;42.696;23.350;2022-11-10T09:36:37;95.93;;;40.55;;
40707;SDS011;26392;42.696;23.350;2022-11-10T09:39:05;94.72;;;42.53;;
40707;SDS011;26392;42.696;23.350;2022-11-10T09:41:31;103.25;;;42.97;;
40707;SDS011;26392;42.696;23.350;2022-11-10T09:46:41;94.10;;;42.15;;
40707;SDS011;26392;42.696;23.350;2022-11-10T09:49:22;93.63;;;43.00;;
40707;SDS011;26392;42.696;23.350;2022-11-10T09:52:00;93.95;;;42.47;;
40707;SDS011;26392;42.696;23.350;2022-11-10T09:56:54;89.93;;;41.30;;
40707;SDS011;26392;42.696;23.350;2022-11-10T09:59:31;87.50;;;41.35;;
40707;SDS011;26392;42.696;23.350;2022-11-10T10:04:43;96.35;;;39.53;;
40707;SDS011;26392;42.696;23.350;2022-11-10T10:07:28;90.97;;;40.17;;
40707;SDS011;26392;42.696;23.350;2022-11-10T10:15:14;79.18;;;35.22;;
40707;SDS011;26392;42.696;23.350;2022-11-10T10:17:56;75.03;;;34.92;;
40707;SDS011;26392;42.696;23.350;2022-11-10T10:20:50;71.85;;;35.30;;
40707;SDS011;26392;42.696;23.350;2022-11-10T10:23:34;74.05;;;35.75;;
40707;SDS011;26392;42.696;23.350;2022-11-10T10:26:11;80.97;;;37.53;;
40707;SDS011;26392;42.696;23.350;2022-11-10T10:28:40;81.00;;;36.08;;
40707;SDS011;26392;42.696;23.350;2022-11-10T10:31:19;74.93;;;35.70;;
40707;SDS011;26392;42.696;23.350;2022-11-10T10:33:48;77.55;;;36.67;;
40707;SDS011;26392;42.696;23.350;2022-11-10T10:36:25;66.70;;;33.50;;
40707;SDS011;26392;42.696;23.350;2022-11-10T10:38:53;65.72;;;32.55;;
40707;SDS011;26392;42.696;23.350;2022-11-10T10:41:23;73.82;;;31.77;;
40707;SDS011;26392;42.696;23.350;2022-11-10T10:43:52;62.90;;;30.95;;
40707;SDS011;26392;42.696;23.350;2022-11-10T10:46:20;63.13;;;31.48;;
40707;SDS011;26392;42.696;23.350;2022-11-10T10:49:07;69.53;;;32.83;;
40707;SDS011;26392;42.696;23.350;2022-11-10T10:51:36;69.78;;;33.30;;
40707;SDS011;26392;42.696;23.350;2022-11-10T10:54:01;73.88;;;34.67;;
40707;SDS011;26392;42.696;23.350;2022-11-10T10:56:27;69.43;;;33.55;;
40707;SDS011;26392;42.696;23.350;2022-11-10T10:58:57;64.15;;;29.63;;
40707;SDS011;26392;42.696;23.350;2022-11-10T11:03:58;61.78;;;29.17;;
40707;SDS011;26392;42.696;23.350;2022-11-10T11:06:26;57.38;;;29.17;;
40707;SDS011;26392;42.696;23.350;2022-11-10T11:09:27;62.70;;;29.77;;
40707;SDS011;26392;42.696;23.350;2022-11-10T11:11:58;63.80;;;30.13;;
40707;SDS011;26392;42.696;23.350;2022-11-10T11:14:27;55.03;;;27.25;;
40707;SDS011;26392;42.696;23.350;2022-11-10T11:17:11;58.28;;;29.85;;
40707;SDS011;26392;42.696;23.350;2022-11-10T11:19:41;62.17;;;28.95;;
40707;SDS011;26392;42.696;23.350;2022-11-10T11:30:30;47.15;;;24.10;;
40707;SDS011;26392;42.696;23.350;2022-11-10T11:35:45;57.95;;;27.08;;
40707;SDS011;26392;42.696;23.350;2022-11-10T11:46:37;60.30;;;28.27;;
40707;SDS011;26392;42.696;23.350;2022-11-10T11:52:05;58.13;;;26.92;;
40707;SDS011;26392;42.696;23.350;2022-11-10T11:57:35;52.55;;;27.10;;
40707;SDS011;26392;42.696;23.350;2022-11-10T12:06:25;47.45;;;23.85;;
40707;SDS011;26392;42.696;23.350;2022-11-10T12:09:04;49.40;;;25.65;;
40707;SDS011;26392;42.696;23.350;2022-11-10T12:19:53;49.45;;;25.48;;
40707;SDS011;26392;42.696;23.350;2022-11-10T12:22:34;57.20;;;26.88;;
40707;SDS011;26392;42.696;23.350;2022-11-10T12:30:51;60.08;;;25.50;;
40707;SDS011;26392;42.696;23.350;2022-11-10T12:36:07;51.78;;;26.10;;
40707;SDS011;26392;42.696;23.350;2022-11-10T12:41:13;56.85;;;26.42;;
40707;SDS011;26392;42.696;23.350;2022-11-10T12:46:30;55.45;;;25.80;;
40707;SDS011;26392;42.696;23.350;2022-11-10T12:54:45;53.13;;;25.10;;
40707;SDS011;26392;42.696;23.350;2022-11-10T12:57:18;49.08;;;24.45;;
40707;SDS011;26392;42.696;23.350;2022-11-10T13:02:27;54.00;;;26.23;;
40707;SDS011;26392;42.696;23.350;2022-11-10T13:11:03;55.78;;;24.58;;
40707;SDS011;26392;42.696;23.350;2022-11-10T13:13:45;57.05;;;24.33;;
40707;SDS011;26392;42.696;23.350;2022-11-10T13:16:44;46.95;;;24.10;;
40707;SDS011;26392;42.696;23.350;2022-11-10T13:19:54;45.60;;;24.13;;
40707;SDS011;26392;42.696;23.350;2022-11-10T13:24:27;48.20;;;23.58;;
40707;SDS011;26392;42.696;23.350;2022-11-10T13:27:01;48.57;;;24.30;;
40707;SDS011;26392;42.696;23.350;2022-11-10T13:34:36;47.35;;;24.05;;
40707;SDS011;26392;42.696;23.350;2022-11-10T13:37:27;48.05;;;25.33;;
40707;SDS011;26392;42.696;23.350;2022-11-10T13:40:38;53.55;;;24.63;;
40707;SDS011;26392;42.696;23.350;2022-11-10T13:45:29;54.92;;;25.95;;
40707;SDS011;26392;42.696;23.350;2022-11-10T13:48:05;53.15;;;25.17;;
40707;SDS011;26392;42.696;23.350;2022-11-10T13:58:57;53.60;;;25.45;;
40707;SDS011;26392;42.696;23.350;2022-11-10T14:01:24;52.63;;;25.40;;
40707;SDS011;26392;42.696;23.350;2022-11-10T14:03:54;48.58;;;25.00;;
40707;SDS011;26392;42.696;23.350;2022-11-10T14:09:20;53.03;;;25.85;;
40707;SDS011;26392;42.696;23.350;2022-11-10T14:11:54;48.05;;;24.42;;
40707;SDS011;26392;42.696;23.350;2022-11-10T14:17:12;49.42;;;24.48;;
40707;SDS011;26392;42.696;23.350;2022-11-10T14:19:42;49.80;;;24.67;;
40707;SDS011;26392;42.696;23.350;2022-11-10T14:22:32;46.53;;;23.65;;
40707;SDS011;26392;42.696;23.350;2022-11-10T14:25:00;48.90;;;23.23;;
40707;SDS011;26392;42.696;23.350;2022-11-10T14:27:38;52.28;;;23.73;;
40707;SDS011;26392;42.696;23.350;2022-11-10T14:30:06;51.72;;;24.42;;
40707;SDS011;26392;42.696;23.350;2022-11-10T14:32:44;50.15;;;22.63;;
40707;SDS011;26392;42.696;23.350;2022-11-10T14:35:20;52.88;;;23.27;;
40707;SDS011;26392;42.696;23.350;2022-11-10T14:37:47;47.83;;;23.70;;
40707;SDS011;26392;42.696;23.350;2022-11-10T14:40:16;45.83;;;22.83;;
40707;SDS011;26392;42.696;23.350;2022-11-10T14:42:43;49.90;;;23.58;;
40707;SDS011;26392;42.696;23.350;2022-11-10T14:45:14;54.22;;;23.92;;
40707;SDS011;26392;42.696;23.350;2022-11-10T14:52:47;51.72;;;22.90;;
40707;SDS011;26392;42.696;23.350;2022-11-10T14:55:17;48.80;;;23.77;;
40707;SDS011;26392;42.696;23.350;2022-11-10T14:57:53;41.80;;;21.25;;
40707;SDS011;26392;42.696;23.350;2022-11-10T15:00:38;41.97;;;21.33;;
40707;SDS011;26392;42.696;23.350;2022-11-10T15:03:06;39.70;;;21.17;;
40707;SDS011;26392;42.696;23.350;2022-11-10T15:05:32;49.08;;;23.85;;
40707;SDS011;26392;42.696;23.350;2022-11-10T15:07:59;46.67;;;23.20;;
40707;SDS011;26392;42.696;23.350;2022-11-10T15:10:40;50.22;;;24.60;;
40707;SDS011;26392;42.696;23.350;2022-11-10T15:15:51;55.75;;;25.85;;
40707;SDS011;26392;42.696;23.350;2022-11-10T15:18:37;52.25;;;23.77;;
40707;SDS011;26392;42.696;23.350;2022-11-10T15:21:03;48.15;;;23.73;;
40707;SDS011;26392;42.696;23.350;2022-11-10T15:23:35;48.95;;;24.63;;
40707;SDS011;26392;42.696;23.350;2022-11-10T15:26:03;55.20;;;24.00;;
40707;SDS011;26392;42.696;23.350;2022-11-10T15:28:33;50.80;;;25.67;;
40707;SDS011;26392;42.696;23.350;2022-11-10T15:31:01;50.55;;;24.38;;
40707;SDS011;26392;42.696;23.350;2022-11-10T15:33:30;45.78;;;21.13;;
40707;SDS011;26392;42.696;23.350;2022-11-10T15:41:37;50.70;;;25.35;;
40707;SDS011;26392;42.696;23.350;2022-11-10T15:44:16;54.97;;;25.35;;
40707;SDS011;26392;42.696;23.350;2022-11-10T15:46:46;64.30;;;26.15;;
40707;SDS011;26392;42.696;23.350;2022-11-10T15:49:26;68.38;;;31.23;;
40707;SDS011;26392;42.696;23.350;2022-11-10T15:52:01;61.47;;;30.30;;
40707;SDS011;26392;42.696;23.350;2022-11-10T15:54:30;62.63;;;28.40;;
40707;SDS011;26392;42.696;23.350;2022-11-10T15:56:57;60.45;;;28.83;;
40707;SDS011;26392;42.696;23.350;2022-11-10T15:59:23;55.90;;;28.42;;
40707;SDS011;26392;42.696;23.350;2022-11-10T16:01:48;58.75;;;27.17;;
40707;SDS011;26392;42.696;23.350;2022-11-10T16:04:14;75.25;;;29.08;;
40707;SDS011;26392;42.696;23.350;2022-11-10T16:06:40;65.70;;;30.05;;
40707;SDS011;26392;42.696;23.350;2022-11-10T16:09:05;62.70;;;29.15;;
40707;SDS011;26392;42.696;23.350;2022-11-10T16:11:33;69.43;;;28.92;;
40707;SDS011;26392;42.696;23.350;2022-11-10T16:14:00;70.93;;;29.85;;
40707;SDS011;26392;42.696;23.350;2022-11-10T16:16:27;57.78;;;28.23;;
40707;SDS011;26392;42.696;23.350;2022-11-10T16:18:53;59.22;;;30.20;;